sensor_id;sensor_type;location;lat;lon;timestamp;pressure;altitude;pressure_sealevel;temperature;humidity
18137;BME280;9194;42.632;23.298;2023-08-31T00:02:02;92129.69;;;18.25;94.79
18137;BME280;9194;42.632;23.298;2023-08-31T00:07:05;92129.31;;;18.36;95.05
18137;BME280;9194;42.632;23.298;2023-08-31T00:12:07;92130.41;;;18.06;97.11
18137;BME280;9194;42.632;23.298;2023-08-31T00:17:09;92136.63;;;18.44;95.97
18137;BME280;9194;42.632;23.298;2023-08-31T00:22:10;92123.34;;;18.55;93.85
18137;BME280;9194;42.632;23.298;2023-08-31T00:27:11;92130.63;;;18.39;95.05
18137;BME280;9194;42.632;23.298;2023-08-31T00:32:15;92130.63;;;18.39;95.79
18137;BME280;9194;42.632;23.298;2023-08-31T00:37:16;92133.75;;;18.41;94.85
18137;BME280;9194;42.632;23.298;2023-08-31T00:42:18;92144.78;;;18.43;95.47
18137;BME280;9194;42.632;23.298;2023-08-31T00:47:19;92151.00;;;18.57;93.24
18137;BME280;9194;42.632;23.298;2023-08-31T00:52:21;92148.25;;;18.67;92.10
18137;BME280;9194;42.632;23.298;2023-08-31T00:57:22;92149.53;;;18.70;93.54
18137;BME280;9194;42.632;23.298;2023-08-31T01:02:32;92159.72;;;18.58;94.22
18137;BME280;9194;42.632;23.298;2023-08-31T01:07:53;92166.63;;;18.48;95.79
18137;BME280;9194;42.632;23.298;2023-08-31T01:13:24;92157.97;;;18.43;95.92
18137;BME280;9194;42.632;23.298;2023-08-31T01:18:27;92161.94;;;18.40;95.99
18137;BME280;9194;42.632;23.298;2023-08-31T01:24:00;92164.47;;;18.27;97.25
18137;BME280;9194;42.632;23.298;2023-08-31T01:29:02;92165.38;;;18.12;98.49
18137;BME280;9194;42.632;23.298;2023-08-31T01:34:04;92157.81;;;18.05;98.92
18137;BME280;9194;42.632;23.298;2023-08-31T01:39:15;92153.16;;;17.97;99.39
18137;BME280;9194;42.632;23.298;2023-08-31T01:44:20;92156.66;;;17.88;99.61
18137;BME280;9194;42.632;23.298;2023-08-31T01:49:22;92149.97;;;17.67;100.00
18137;BME280;9194;42.632;23.298;2023-08-31T01:54:25;92147.72;;;17.50;100.00
18137;BME280;9194;42.632;23.298;2023-08-31T01:59:26;92159.06;;;17.45;100.00
18137;BME280;9194;42.632;23.298;2023-08-31T02:04:28;92165.66;;;17.43;100.00
18137;BME280;9194;42.632;23.298;2023-08-31T02:09:31;92167.78;;;17.36;100.00
18137;BME280;9194;42.632;23.298;2023-08-31T02:14:33;92181.81;;;17.26;100.00
18137;BME280;9194;42.632;23.298;2023-08-31T02:19:34;92190.03;;;17.14;100.00
18137;BME280;9194;42.632;23.298;2023-08-31T02:24:35;92185.81;;;17.13;100.00
18137;BME280;9194;42.632;23.298;2023-08-31T02:29:37;92174.03;;;17.06;100.00
18137;BME280;9194;42.632;23.298;2023-08-31T02:34:40;92173.53;;;16.99;100.00
18137;BME280;9194;42.632;23.298;2023-08-31T02:39:41;92170.41;;;16.92;100.00
18137;BME280;9194;42.632;23.298;2023-08-31T02:44:43;92167.81;;;16.87;100.00
18137;BME280;9194;42.632;23.298;2023-08-31T02:49:44;92170.97;;;16.83;100.00
18137;BME280;9194;42.632;23.298;2023-08-31T02:54:46;92173.66;;;16.68;100.00
18137;BME280;9194;42.632;23.298;2023-08-31T02:59:50;92181.31;;;16.65;100.00
18137;BME280;9194;42.632;23.298;2023-08-31T03:04:52;92202.34;;;16.60;100.00
18137;BME280;9194;42.632;23.298;2023-08-31T03:09:53;92209.94;;;16.61;100.00
18137;BME280;9194;42.632;23.298;2023-08-31T03:14:54;92203.66;;;16.52;100.00
18137;BME280;9194;42.632;23.298;2023-08-31T03:19:55;92206.59;;;16.30;100.00
18137;BME280;9194;42.632;23.298;2023-08-31T03:24:56;92198.44;;;16.42;100.00
18137;BME280;9194;42.632;23.298;2023-08-31T03:29:58;92201.03;;;16.37;100.00
18137;BME280;9194;42.632;23.298;2023-08-31T03:34:59;92205.53;;;16.26;100.00
18137;BME280;9194;42.632;23.298;2023-08-31T03:40:02;92208.44;;;16.25;100.00
18137;BME280;9194;42.632;23.298;2023-08-31T03:45:05;92209.72;;;16.32;100.00
18137;BME280;9194;42.632;23.298;2023-08-31T03:50:07;92218.94;;;16.25;100.00
18137;BME280;9194;42.632;23.298;2023-08-31T03:55:09;92222.59;;;16.34;100.00
18137;BME280;9194;42.632;23.298;2023-08-31T04:00:11;92225.25;;;16.29;100.00
18137;BME280;9194;42.632;23.298;2023-08-31T04:05:16;92233.88;;;16.44;100.00
18137;BME280;9194;42.632;23.298;2023-08-31T04:10:18;92254.91;;;16.39;100.00
18137;BME280;9194;42.632;23.298;2023-08-31T04:15:20;92259.34;;;16.49;100.00
18137;BME280;9194;42.632;23.298;2023-08-31T04:20:21;92258.56;;;16.59;100.00
18137;BME280;9194;42.632;23.298;2023-08-31T04:25:23;92259.56;;;16.78;100.00
18137;BME280;9194;42.632;23.298;2023-08-31T04:30:24;92273.50;;;16.89;100.00
18137;BME280;9194;42.632;23.298;2023-08-31T04:35:27;92287.41;;;16.89;100.00
18137;BME280;9194;42.632;23.298;2023-08-31T04:40:28;92286.03;;;17.07;100.00
18137;BME280;9194;42.632;23.298;2023-08-31T04:45:30;92279.97;;;17.16;100.00
18137;BME280;9194;42.632;23.298;2023-08-31T04:50:31;92293.63;;;17.18;100.00
18137;BME280;9194;42.632;23.298;2023-08-31T05:05:46;92284.56;;;17.99;100.00
18137;BME280;9194;42.632;23.298;2023-08-31T05:10:47;92291.41;;;17.95;100.00
18137;BME280;9194;42.632;23.298;2023-08-31T05:15:48;92290.25;;;18.16;100.00
18137;BME280;9194;42.632;23.298;2023-08-31T05:20:49;92293.47;;;18.71;99.79
18137;BME280;9194;42.632;23.298;2023-08-31T05:25:50;92288.31;;;18.61;91.96
18137;BME280;9194;42.632;23.298;2023-08-31T05:30:54;92289.69;;;19.06;89.55
18137;BME280;9194;42.632;23.298;2023-08-31T05:35:56;92287.84;;;19.30;90.03
18137;BME280;9194;42.632;23.298;2023-08-31T05:41:07;92285.66;;;19.61;85.50
18137;BME280;9194;42.632;23.298;2023-08-31T05:46:09;92288.28;;;19.37;85.58
18137;BME280;9194;42.632;23.298;2023-08-31T05:51:10;92290.88;;;19.42;84.01
18137;BME280;9194;42.632;23.298;2023-08-31T05:56:11;92296.28;;;19.75;83.50
18137;BME280;9194;42.632;23.298;2023-08-31T06:01:12;92287.09;;;19.91;84.96
18137;BME280;9194;42.632;23.298;2023-08-31T06:06:13;92285.47;;;20.14;79.18
18137;BME280;9194;42.632;23.298;2023-08-31T06:11:15;92293.81;;;20.21;81.38
18137;BME280;9194;42.632;23.298;2023-08-31T06:16:16;92296.03;;;20.14;79.98
18137;BME280;9194;42.632;23.298;2023-08-31T06:21:17;92302.72;;;20.25;78.87
18137;BME280;9194;42.632;23.298;2023-08-31T06:26:18;92309.88;;;20.05;82.51
18137;BME280;9194;42.632;23.298;2023-08-31T06:31:19;92314.94;;;20.39;80.32
18137;BME280;9194;42.632;23.298;2023-08-31T06:36:20;92318.41;;;20.72;78.29
18137;BME280;9194;42.632;23.298;2023-08-31T06:41:22;92324.63;;;20.95;77.92
18137;BME280;9194;42.632;23.298;2023-08-31T06:46:23;92331.53;;;20.77;81.01
18137;BME280;9194;42.632;23.298;2023-08-31T06:51:24;92338.19;;;21.07;77.04
18137;BME280;9194;42.632;23.298;2023-08-31T06:56:25;92340.91;;;20.70;79.07
18137;BME280;9194;42.632;23.298;2023-08-31T07:01:26;92336.06;;;21.50;75.32
18137;BME280;9194;42.632;23.298;2023-08-31T07:06:29;92347.56;;;21.59;76.92
18137;BME280;9194;42.632;23.298;2023-08-31T07:11:30;92341.59;;;21.95;77.43
18137;BME280;9194;42.632;23.298;2023-08-31T07:16:31;92339.41;;;21.97;75.78
18137;BME280;9194;42.632;23.298;2023-08-31T07:21:32;92344.44;;;22.57;71.61
18137;BME280;9194;42.632;23.298;2023-08-31T07:26:34;92333.69;;;22.17;68.17
18137;BME280;9194;42.632;23.298;2023-08-31T07:31:35;92333.59;;;22.67;71.55
18137;BME280;9194;42.632;23.298;2023-08-31T07:36:37;92337.50;;;22.83;68.82
18137;BME280;9194;42.632;23.298;2023-08-31T07:41:38;92337.13;;;22.98;61.90
18137;BME280;9194;42.632;23.298;2023-08-31T07:46:39;92332.75;;;23.02;58.48
18137;BME280;9194;42.632;23.298;2023-08-31T07:51:40;92339.94;;;23.32;58.33
18137;BME280;9194;42.632;23.298;2023-08-31T07:56:41;92336.66;;;23.58;57.65
18137;BME280;9194;42.632;23.298;2023-08-31T08:01:43;92343.25;;;23.78;55.94
18137;BME280;9194;42.632;23.298;2023-08-31T08:06:44;92355.13;;;23.63;54.63
18137;BME280;9194;42.632;23.298;2023-08-31T08:11:45;92347.91;;;23.32;55.20
18137;BME280;9194;42.632;23.298;2023-08-31T08:16:46;92371.69;;;22.84;61.93
18137;BME280;9194;42.632;23.298;2023-08-31T08:21:47;92365.34;;;23.16;55.19
18137;BME280;9194;42.632;23.298;2023-08-31T08:26:49;92361.63;;;23.88;51.97
18137;BME280;9194;42.632;23.298;2023-08-31T08:31:50;92355.22;;;23.97;49.09
18137;BME280;9194;42.632;23.298;2023-08-31T08:36:51;92355.63;;;24.22;48.92
18137;BME280;9194;42.632;23.298;2023-08-31T08:41:54;92371.91;;;24.37;46.32
18137;BME280;9194;42.632;23.298;2023-08-31T08:46:57;92370.09;;;23.98;48.29
18137;BME280;9194;42.632;23.298;2023-08-31T08:52:00;92364.44;;;24.00;49.21
18137;BME280;9194;42.632;23.298;2023-08-31T08:57:01;92371.06;;;24.11;50.34
18137;BME280;9194;42.632;23.298;2023-08-31T09:02:05;92348.44;;;24.91;45.82
18137;BME280;9194;42.632;23.298;2023-08-31T09:07:08;92352.34;;;24.68;46.04
18137;BME280;9194;42.632;23.298;2023-08-31T09:12:10;92355.00;;;24.50;46.37
18137;BME280;9194;42.632;23.298;2023-08-31T09:17:11;92348.25;;;24.87;44.96
18137;BME280;9194;42.632;23.298;2023-08-31T09:22:13;92349.38;;;24.86;46.28
18137;BME280;9194;42.632;23.298;2023-08-31T09:27:14;92350.16;;;24.95;46.01
18137;BME280;9194;42.632;23.298;2023-08-31T09:32:17;92353.09;;;25.20;46.29
18137;BME280;9194;42.632;23.298;2023-08-31T09:37:18;92345.13;;;25.11;46.81
18137;BME280;9194;42.632;23.298;2023-08-31T09:42:20;92337.41;;;25.27;46.88
18137;BME280;9194;42.632;23.298;2023-08-31T09:47:21;92342.16;;;24.95;47.41
18137;BME280;9194;42.632;23.298;2023-08-31T09:52:22;92340.44;;;25.55;44.76
18137;BME280;9194;42.632;23.298;2023-08-31T09:57:25;92343.69;;;25.77;45.05
18137;BME280;9194;42.632;23.298;2023-08-31T10:02:28;92348.97;;;25.86;46.38
18137;BME280;9194;42.632;23.298;2023-08-31T10:07:30;92344.44;;;25.31;45.71
18137;BME280;9194;42.632;23.298;2023-08-31T10:12:32;92346.81;;;25.33;46.44
18137;BME280;9194;42.632;23.298;2023-08-31T10:17:35;92336.50;;;25.69;46.42
18137;BME280;9194;42.632;23.298;2023-08-31T10:22:37;92343.91;;;25.55;44.41
18137;BME280;9194;42.632;23.298;2023-08-31T10:27:40;92342.63;;;26.91;44.57
18137;BME280;9194;42.632;23.298;2023-08-31T10:32:41;92347.94;;;26.79;42.71
18137;BME280;9194;42.632;23.298;2023-08-31T10:37:42;92361.59;;;26.98;41.88
18137;BME280;9194;42.632;23.298;2023-08-31T10:42:45;92355.81;;;27.29;41.48
18137;BME280;9194;42.632;23.298;2023-08-31T10:47:49;92360.94;;;27.55;39.57
18137;BME280;9194;42.632;23.298;2023-08-31T10:52:50;92373.56;;;27.46;40.72
18137;BME280;9194;42.632;23.298;2023-08-31T10:57:51;92359.50;;;26.62;41.36
18137;BME280;9194;42.632;23.298;2023-08-31T11:02:55;92361.75;;;25.63;43.58
18137;BME280;9194;42.632;23.298;2023-08-31T11:07:56;92363.69;;;25.92;44.01
18137;BME280;9194;42.632;23.298;2023-08-31T11:12:58;92367.53;;;26.41;43.31
18137;BME280;9194;42.632;23.298;2023-08-31T11:17:59;92372.72;;;26.38;44.26
18137;BME280;9194;42.632;23.298;2023-08-31T11:23:00;92367.03;;;27.22;42.60
18137;BME280;9194;42.632;23.298;2023-08-31T11:28:08;92367.91;;;26.31;43.91
18137;BME280;9194;42.632;23.298;2023-08-31T11:33:09;92360.28;;;26.63;43.12
18137;BME280;9194;42.632;23.298;2023-08-31T11:38:12;92364.31;;;27.10;42.87
18137;BME280;9194;42.632;23.298;2023-08-31T11:43:15;92363.38;;;27.60;42.91
18137;BME280;9194;42.632;23.298;2023-08-31T11:48:16;92357.47;;;25.80;43.80
18137;BME280;9194;42.632;23.298;2023-08-31T11:53:17;92355.72;;;25.84;44.78
18137;BME280;9194;42.632;23.298;2023-08-31T11:58:19;92356.94;;;25.40;47.32
18137;BME280;9194;42.632;23.298;2023-08-31T12:03:25;92355.28;;;25.18;49.25
18137;BME280;9194;42.632;23.298;2023-08-31T12:08:27;92358.56;;;25.32;49.55
18137;BME280;9194;42.632;23.298;2023-08-31T12:13:28;92356.63;;;25.50;47.98
18137;BME280;9194;42.632;23.298;2023-08-31T12:18:30;92358.22;;;25.89;48.20
18137;BME280;9194;42.632;23.298;2023-08-31T12:23:34;92351.69;;;25.14;48.95
18137;BME280;9194;42.632;23.298;2023-08-31T12:28:35;92359.22;;;24.43;50.68
18137;BME280;9194;42.632;23.298;2023-08-31T12:33:36;92362.34;;;24.28;51.78
18137;BME280;9194;42.632;23.298;2023-08-31T12:38:38;92361.09;;;24.42;50.74
18137;BME280;9194;42.632;23.298;2023-08-31T12:43:39;92357.66;;;24.59;51.05
18137;BME280;9194;42.632;23.298;2023-08-31T12:48:40;92348.16;;;24.92;50.95
18137;BME280;9194;42.632;23.298;2023-08-31T12:53:41;92347.94;;;25.06;52.15
18137;BME280;9194;42.632;23.298;2023-08-31T12:58:43;92347.19;;;24.97;50.50
18137;BME280;9194;42.632;23.298;2023-08-31T13:03:45;92355.63;;;24.99;52.29
18137;BME280;9194;42.632;23.298;2023-08-31T13:08:47;92353.75;;;25.00;48.75
18137;BME280;9194;42.632;23.298;2023-08-31T13:13:49;92352.28;;;25.28;52.37
18137;BME280;9194;42.632;23.298;2023-08-31T13:18:53;92355.50;;;24.95;49.44
18137;BME280;9194;42.632;23.298;2023-08-31T13:23:55;92348.69;;;25.32;48.21
18137;BME280;9194;42.632;23.298;2023-08-31T13:28:56;92346.94;;;25.28;48.02
18137;BME280;9194;42.632;23.298;2023-08-31T13:33:58;92344.28;;;25.36;49.19
18137;BME280;9194;42.632;23.298;2023-08-31T13:38:59;92334.88;;;25.86;46.37
18137;BME280;9194;42.632;23.298;2023-08-31T13:44:00;92346.06;;;25.70;47.79
18137;BME280;9194;42.632;23.298;2023-08-31T13:49:01;92354.84;;;25.07;50.23
18137;BME280;9194;42.632;23.298;2023-08-31T13:54:03;92363.31;;;25.01;48.13
18137;BME280;9194;42.632;23.298;2023-08-31T13:59:05;92373.03;;;24.62;48.46
18137;BME280;9194;42.632;23.298;2023-08-31T14:04:06;92384.44;;;24.45;51.28
18137;BME280;9194;42.632;23.298;2023-08-31T14:09:07;92396.00;;;23.84;59.15
18137;BME280;9194;42.632;23.298;2023-08-31T14:14:09;92397.56;;;23.23;78.57
18137;BME280;9194;42.632;23.298;2023-08-31T14:19:11;92398.69;;;22.50;89.13
18137;BME280;9194;42.632;23.298;2023-08-31T14:24:12;92405.44;;;22.21;96.19
18137;BME280;9194;42.632;23.298;2023-08-31T14:29:14;92410.56;;;22.17;96.08
18137;BME280;9194;42.632;23.298;2023-08-31T14:34:15;92422.06;;;21.99;86.30
18137;BME280;9194;42.632;23.298;2023-08-31T14:39:16;92429.19;;;21.85;89.99
18137;BME280;9194;42.632;23.298;2023-08-31T14:44:19;92427.84;;;21.87;94.15
18137;BME280;9194;42.632;23.298;2023-08-31T14:49:22;92423.97;;;21.52;93.25
18137;BME280;9194;42.632;23.298;2023-08-31T14:54:23;92437.19;;;21.39;90.83
18137;BME280;9194;42.632;23.298;2023-08-31T14:59:24;92463.38;;;21.40;87.11
18137;BME280;9194;42.632;23.298;2023-08-31T15:04:25;92459.16;;;21.39;77.44
18137;BME280;9194;42.632;23.298;2023-08-31T15:09:27;92460.22;;;21.24;79.40
18137;BME280;9194;42.632;23.298;2023-08-31T15:14:28;92451.06;;;21.63;71.82
18137;BME280;9194;42.632;23.298;2023-08-31T15:19:29;92471.56;;;21.57;78.43
18137;BME280;9194;42.632;23.298;2023-08-31T15:24:30;92464.22;;;21.54;71.66
18137;BME280;9194;42.632;23.298;2023-08-31T15:29:33;92454.59;;;21.58;71.61
18137;BME280;9194;42.632;23.298;2023-08-31T15:34:34;92452.59;;;21.50;74.11
18137;BME280;9194;42.632;23.298;2023-08-31T15:39:36;92471.78;;;21.10;74.37
18137;BME280;9194;42.632;23.298;2023-08-31T15:44:41;92487.22;;;21.03;76.61
18137;BME280;9194;42.632;23.298;2023-08-31T15:49:42;92496.66;;;21.09;69.18
18137;BME280;9194;42.632;23.298;2023-08-31T15:54:44;92487.84;;;21.18;71.65
18137;BME280;9194;42.632;23.298;2023-08-31T15:59:46;92490.19;;;21.01;73.08
18137;BME280;9194;42.632;23.298;2023-08-31T16:04:52;92482.69;;;20.71;83.53
18137;BME280;9194;42.632;23.298;2023-08-31T16:09:54;92480.31;;;20.69;77.58
18137;BME280;9194;42.632;23.298;2023-08-31T16:14:55;92479.19;;;20.75;74.98
18137;BME280;9194;42.632;23.298;2023-08-31T16:19:57;92479.59;;;20.64;72.98
18137;BME280;9194;42.632;23.298;2023-08-31T16:24:58;92471.53;;;20.92;70.25
18137;BME280;9194;42.632;23.298;2023-08-31T16:29:59;92486.75;;;20.82;71.30
18137;BME280;9194;42.632;23.298;2023-08-31T16:35:01;92496.47;;;20.68;71.02
18137;BME280;9194;42.632;23.298;2023-08-31T16:40:04;92514.28;;;20.62;71.18
18137;BME280;9194;42.632;23.298;2023-08-31T16:45:06;92505.91;;;20.55;77.58
18137;BME280;9194;42.632;23.298;2023-08-31T16:50:09;92498.44;;;20.38;75.58
18137;BME280;9194;42.632;23.298;2023-08-31T16:55:10;92493.91;;;20.44;72.82
18137;BME280;9194;42.632;23.298;2023-08-31T17:00:12;92505.53;;;20.43;74.12
18137;BME280;9194;42.632;23.298;2023-08-31T17:05:13;92509.25;;;20.42;72.06
18137;BME280;9194;42.632;23.298;2023-08-31T17:10:15;92505.97;;;20.50;68.59
18137;BME280;9194;42.632;23.298;2023-08-31T17:15:17;92499.97;;;20.63;66.00
18137;BME280;9194;42.632;23.298;2023-08-31T17:20:19;92492.47;;;20.70;64.94
18137;BME280;9194;42.632;23.298;2023-08-31T17:25:20;92498.34;;;20.67;65.64
18137;BME280;9194;42.632;23.298;2023-08-31T17:30:22;92511.59;;;20.67;63.34
18137;BME280;9194;42.632;23.298;2023-08-31T17:35:23;92527.38;;;20.72;62.44
18137;BME280;9194;42.632;23.298;2023-08-31T17:40:25;92542.97;;;20.50;66.54
18137;BME280;9194;42.632;23.298;2023-08-31T17:45:26;92546.47;;;20.22;77.50
18137;BME280;9194;42.632;23.298;2023-08-31T17:50:27;92550.59;;;20.09;75.28
18137;BME280;9194;42.632;23.298;2023-08-31T17:55:29;92569.78;;;19.91;78.16
18137;BME280;9194;42.632;23.298;2023-08-31T18:00:30;92571.63;;;19.90;81.64
18137;BME280;9194;42.632;23.298;2023-08-31T18:05:32;92586.06;;;19.74;81.55
18137;BME280;9194;42.632;23.298;2023-08-31T18:10:33;92577.75;;;19.86;68.56
18137;BME280;9194;42.632;23.298;2023-08-31T18:15:35;92589.13;;;20.10;69.61
18137;BME280;9194;42.632;23.298;2023-08-31T18:20:36;92590.84;;;20.25;70.55
18137;BME280;9194;42.632;23.298;2023-08-31T18:25:37;92603.88;;;20.16;70.77
18137;BME280;9194;42.632;23.298;2023-08-31T18:30:38;92602.59;;;20.14;73.97
18137;BME280;9194;42.632;23.298;2023-08-31T18:35:48;92606.47;;;20.21;74.43
18137;BME280;9194;42.632;23.298;2023-08-31T18:40:50;92608.56;;;20.24;74.66
18137;BME280;9194;42.632;23.298;2023-08-31T18:45:54;92604.56;;;20.27;76.49
18137;BME280;9194;42.632;23.298;2023-08-31T18:50:57;92610.47;;;20.19;79.20
18137;BME280;9194;42.632;23.298;2023-08-31T18:55:59;92611.59;;;20.13;80.04
18137;BME280;9194;42.632;23.298;2023-08-31T19:01:02;92617.47;;;20.04;80.06
18137;BME280;9194;42.632;23.298;2023-08-31T19:06:04;92622.69;;;19.86;84.25
18137;BME280;9194;42.632;23.298;2023-08-31T19:11:06;92622.91;;;19.89;82.61
18137;BME280;9194;42.632;23.298;2023-08-31T19:16:08;92623.47;;;19.81;82.47
18137;BME280;9194;42.632;23.298;2023-08-31T19:21:11;92621.59;;;19.53;84.62
18137;BME280;9194;42.632;23.298;2023-08-31T19:26:12;92621.19;;;19.31;86.77
18137;BME280;9194;42.632;23.298;2023-08-31T19:31:15;92646.34;;;19.18;86.61
18137;BME280;9194;42.632;23.298;2023-08-31T19:36:16;92640.09;;;18.99;89.11
18137;BME280;9194;42.632;23.298;2023-08-31T19:41:17;92645.19;;;18.85;89.74
18137;BME280;9194;42.632;23.298;2023-08-31T19:46:18;92647.63;;;18.66;90.75
18137;BME280;9194;42.632;23.298;2023-08-31T19:51:21;92644.72;;;18.68;90.64
18137;BME280;9194;42.632;23.298;2023-08-31T19:56:22;92651.31;;;18.65;91.60
18137;BME280;9194;42.632;23.298;2023-08-31T20:01:23;92649.19;;;18.72;89.28
18137;BME280;9194;42.632;23.298;2023-08-31T20:06:25;92647.59;;;18.71;90.44
18137;BME280;9194;42.632;23.298;2023-08-31T20:11:26;92656.88;;;18.69;88.31
18137;BME280;9194;42.632;23.298;2023-08-31T20:16:27;92669.81;;;18.55;87.72
18137;BME280;9194;42.632;23.298;2023-08-31T20:21:28;92679.56;;;18.50;91.12
18137;BME280;9194;42.632;23.298;2023-08-31T20:26:30;92691.41;;;18.47;92.18
18137;BME280;9194;42.632;23.298;2023-08-31T20:31:31;92685.91;;;18.33;94.47
18137;BME280;9194;42.632;23.298;2023-08-31T20:36:33;92692.25;;;18.07;94.74
18137;BME280;9194;42.632;23.298;2023-08-31T20:41:35;92685.97;;;17.98;96.04
18137;BME280;9194;42.632;23.298;2023-08-31T20:46:38;92695.97;;;17.96;96.89
18137;BME280;9194;42.632;23.298;2023-08-31T20:51:39;92695.69;;;17.82;98.30
18137;BME280;9194;42.632;23.298;2023-08-31T20:56:41;92705.44;;;17.82;97.81
18137;BME280;9194;42.632;23.298;2023-08-31T21:01:43;92710.94;;;17.65;98.50
18137;BME280;9194;42.632;23.298;2023-08-31T21:06:44;92713.06;;;17.73;98.84
18137;BME280;9194;42.632;23.298;2023-08-31T21:11:46;92708.34;;;17.80;98.29
18137;BME280;9194;42.632;23.298;2023-08-31T21:16:49;92728.59;;;17.70;99.54
18137;BME280;9194;42.632;23.298;2023-08-31T21:21:50;92730.69;;;17.73;99.17
18137;BME280;9194;42.632;23.298;2023-08-31T21:26:51;92739.16;;;17.85;97.29
18137;BME280;9194;42.632;23.298;2023-08-31T21:31:52;92743.06;;;17.82;96.98
18137;BME280;9194;42.632;23.298;2023-08-31T21:36:54;92741.78;;;17.80;96.25
18137;BME280;9194;42.632;23.298;2023-08-31T21:41:56;92740.72;;;17.76;96.45
18137;BME280;9194;42.632;23.298;2023-08-31T21:46:57;92752.28;;;17.64;95.22
18137;BME280;9194;42.632;23.298;2023-08-31T21:51:58;92751.25;;;17.86;92.93
18137;BME280;9194;42.632;23.298;2023-08-31T21:56:59;92755.75;;;17.90;93.68
18137;BME280;9194;42.632;23.298;2023-08-31T22:02:00;92760.75;;;17.87;93.25
18137;BME280;9194;42.632;23.298;2023-08-31T22:07:02;92769.59;;;17.55;94.16
18137;BME280;9194;42.632;23.298;2023-08-31T22:12:03;92764.13;;;17.67;95.26
18137;BME280;9194;42.632;23.298;2023-08-31T22:17:05;92773.38;;;17.75;94.20
18137;BME280;9194;42.632;23.298;2023-08-31T22:22:07;92768.59;;;17.72;93.46
18137;BME280;9194;42.632;23.298;2023-08-31T22:27:08;92777.56;;;17.71;93.18
18137;BME280;9194;42.632;23.298;2023-08-31T22:32:10;92780.72;;;17.62;94.73
18137;BME280;9194;42.632;23.298;2023-08-31T22:37:12;92779.34;;;17.55;95.25
18137;BME280;9194;42.632;23.298;2023-08-31T22:42:13;92777.50;;;17.50;95.38
18137;BME280;9194;42.632;23.298;2023-08-31T22:47:14;92783.78;;;17.44;95.93
18137;BME280;9194;42.632;23.298;2023-08-31T22:52:16;92784.31;;;17.41;96.45
18137;BME280;9194;42.632;23.298;2023-08-31T22:57:17;92784.41;;;17.72;92.66
18137;BME280;9194;42.632;23.298;2023-08-31T23:02:18;92783.66;;;17.81;92.59
18137;BME280;9194;42.632;23.298;2023-08-31T23:07:20;92793.44;;;18.16;91.86
18137;BME280;9194;42.632;23.298;2023-08-31T23:12:21;92780.00;;;18.43;90.26
18137;BME280;9194;42.632;23.298;2023-08-31T23:17:22;92783.94;;;18.71;87.92
18137;BME280;9194;42.632;23.298;2023-08-31T23:22:24;92795.03;;;18.63;91.99
18137;BME280;9194;42.632;23.298;2023-08-31T23:27:25;92793.72;;;18.55;92.64
18137;BME280;9194;42.632;23.298;2023-08-31T23:32:30;92806.63;;;18.67;89.39
18137;BME280;9194;42.632;23.298;2023-08-31T23:37:31;92811.91;;;18.57;89.91
18137;BME280;9194;42.632;23.298;2023-08-31T23:42:33;92806.66;;;18.57;91.33
18137;BME280;9194;42.632;23.298;2023-08-31T23:47:34;92802.66;;;18.54;90.57
18137;BME280;9194;42.632;23.298;2023-08-31T23:52:35;92809.75;;;18.18;93.00
18137;BME280;9194;42.632;23.298;2023-08-31T23:57:37;92816.09;;;18.32;92.30
